Coalville, United Kingdom
Current Conditions -  °F | °C
As of 12:20 PM on Thursday 23 Oct 2014 (Local Time) from EGNX Reporting Station
Broken Clouds Broken Clouds  
Wind Chill: 57°   Ceiling: 1700
Heat Index: 57°   Visibility: 6mi
Dew Point: 52°   Wind: 16mph
Humidity: 82%   Direction: 220°SW
Pressure: 30"   Gusts: NA
Location:  52.72°N, 1.37°W
Report Text: EGNX 231120Z 22014KT 9999 SCT011 BKN017 14/11 Q1016
Loading
Personal Weather Stations






























Interactive Weather Map
Tropical Storm Tracking
New forecast layout! Learn more

10-Day Weather Forecast

Advertisements
Track Severe Weather on mobile